sensor_id;sensor_type;location;lat;lon;timestamp;temperature;humidity
41557;DHT22;27720;51.992;5.890;2023-09-08T00:01:38;24.40;74.70
41557;DHT22;27720;51.992;5.890;2023-09-08T00:04:04;24.30;74.80
41557;DHT22;27720;51.992;5.890;2023-09-08T00:06:29;24.30;74.90
41557;DHT22;27720;51.992;5.890;2023-09-08T00:08:55;24.30;75.10
41557;DHT22;27720;51.992;5.890;2023-09-08T00:11:21;24.30;75.10
41557;DHT22;27720;51.992;5.890;2023-09-08T00:13:47;24.20;75.10
41557;DHT22;27720;51.992;5.890;2023-09-08T00:16:12;24.20;75.20
41557;DHT22;27720;51.992;5.890;2023-09-08T00:18:38;24.20;75.30
41557;DHT22;27720;51.992;5.890;2023-09-08T00:21:04;24.20;75.40
41557;DHT22;27720;51.992;5.890;2023-09-08T00:23:29;24.10;75.40
41557;DHT22;27720;51.992;5.890;2023-09-08T00:25:55;24.10;75.60
41557;DHT22;27720;51.992;5.890;2023-09-08T00:28:21;24.10;75.70
41557;DHT22;27720;51.992;5.890;2023-09-08T00:30:46;24.00;75.70
41557;DHT22;27720;51.992;5.890;2023-09-08T00:33:12;24.00;75.80
41557;DHT22;27720;51.992;5.890;2023-09-08T00:35:40;24.00;75.80
41557;DHT22;27720;51.992;5.890;2023-09-08T00:38:09;23.90;75.90
41557;DHT22;27720;51.992;5.890;2023-09-08T00:40:35;23.90;76.10
41557;DHT22;27720;51.992;5.890;2023-09-08T00:43:01;23.90;76.20
41557;DHT22;27720;51.992;5.890;2023-09-08T00:45:28;23.80;76.20
41557;DHT22;27720;51.992;5.890;2023-09-08T00:47:58;23.90;76.40
41557;DHT22;27720;51.992;5.890;2023-09-08T00:50:24;23.80;76.40
41557;DHT22;27720;51.992;5.890;2023-09-08T00:52:49;23.80;76.50
41557;DHT22;27720;51.992;5.890;2023-09-08T00:55:17;23.70;76.50
41557;DHT22;27720;51.992;5.890;2023-09-08T00:57:43;23.70;76.60
41557;DHT22;27720;51.992;5.890;2023-09-08T01:00:09;23.70;76.70
41557;DHT22;27720;51.992;5.890;2023-09-08T01:02:35;23.70;76.70
41557;DHT22;27720;51.992;5.890;2023-09-08T01:05:01;23.60;76.80
41557;DHT22;27720;51.992;5.890;2023-09-08T01:07:29;23.60;77.00
41557;DHT22;27720;51.992;5.890;2023-09-08T01:09:56;23.50;77.00
41557;DHT22;27720;51.992;5.890;2023-09-08T01:12:22;23.50;77.10
41557;DHT22;27720;51.992;5.890;2023-09-08T01:14:48;23.50;77.20
41557;DHT22;27720;51.992;5.890;2023-09-08T01:17:13;23.50;77.30
41557;DHT22;27720;51.992;5.890;2023-09-08T01:19:41;23.40;77.30
41557;DHT22;27720;51.992;5.890;2023-09-08T01:22:30;23.40;77.40
41557;DHT22;27720;51.992;5.890;2023-09-08T01:27:54;23.30;77.40
41557;DHT22;27720;51.992;5.890;2023-09-08T01:30:25;23.30;77.50
41557;DHT22;27720;51.992;5.890;2023-09-08T01:32:53;23.30;77.70
41557;DHT22;27720;51.992;5.890;2023-09-08T01:35:19;23.30;77.70
41557;DHT22;27720;51.992;5.890;2023-09-08T01:37:46;23.20;77.70
41557;DHT22;27720;51.992;5.890;2023-09-08T01:40:12;23.20;77.80
41557;DHT22;27720;51.992;5.890;2023-09-08T01:42:38;23.20;77.90
41557;DHT22;27720;51.992;5.890;2023-09-08T01:45:04;23.20;78.00
41557;DHT22;27720;51.992;5.890;2023-09-08T01:47:30;23.10;78.00
41557;DHT22;27720;51.992;5.890;2023-09-08T01:49:56;23.10;78.10
41557;DHT22;27720;51.992;5.890;2023-09-08T01:52:22;23.00;78.10
41557;DHT22;27720;51.992;5.890;2023-09-08T01:54:48;23.10;78.20
41557;DHT22;27720;51.992;5.890;2023-09-08T01:57:13;23.10;78.30
41557;DHT22;27720;51.992;5.890;2023-09-08T01:59:39;23.00;78.40
41557;DHT22;27720;51.992;5.890;2023-09-08T02:02:05;23.00;78.50
41557;DHT22;27720;51.992;5.890;2023-09-08T02:04:32;22.90;78.60
41557;DHT22;27720;51.992;5.890;2023-09-08T02:06:58;22.90;78.70
41557;DHT22;27720;51.992;5.890;2023-09-08T02:09:35;22.90;78.90
41557;DHT22;27720;51.992;5.890;2023-09-08T02:12:02;22.80;78.80
41557;DHT22;27720;51.992;5.890;2023-09-08T02:14:28;22.80;79.10
41557;DHT22;27720;51.992;5.890;2023-09-08T02:16:55;22.80;79.10
41557;DHT22;27720;51.992;5.890;2023-09-08T02:19:23;22.80;79.20
41557;DHT22;27720;51.992;5.890;2023-09-08T02:21:49;22.70;79.30
41557;DHT22;27720;51.992;5.890;2023-09-08T02:24:15;22.60;79.30
41557;DHT22;27720;51.992;5.890;2023-09-08T02:26:41;22.70;79.50
41557;DHT22;27720;51.992;5.890;2023-09-08T02:29:07;22.60;79.50
41557;DHT22;27720;51.992;5.890;2023-09-08T02:31:34;22.50;79.70
41557;DHT22;27720;51.992;5.890;2023-09-08T02:34:02;22.50;79.70
41557;DHT22;27720;51.992;5.890;2023-09-08T02:36:28;22.50;79.90
41557;DHT22;27720;51.992;5.890;2023-09-08T02:38:58;22.40;80.00
41557;DHT22;27720;51.992;5.890;2023-09-08T02:41:25;22.40;80.10
41557;DHT22;27720;51.992;5.890;2023-09-08T02:43:50;22.40;80.20
41557;DHT22;27720;51.992;5.890;2023-09-08T02:46:19;22.30;81.00
41557;DHT22;27720;51.992;5.890;2023-09-08T02:48:46;22.30;80.40
41557;DHT22;27720;51.992;5.890;2023-09-08T02:51:12;22.30;80.50
41557;DHT22;27720;51.992;5.890;2023-09-08T02:53:38;22.20;80.60
41557;DHT22;27720;51.992;5.890;2023-09-08T02:56:03;22.30;80.70
41557;DHT22;27720;51.992;5.890;2023-09-08T02:58:31;22.20;80.80
41557;DHT22;27720;51.992;5.890;2023-09-08T03:01:14;22.20;80.90
41557;DHT22;27720;51.992;5.890;2023-09-08T03:03:43;22.10;80.80
41557;DHT22;27720;51.992;5.890;2023-09-08T03:06:10;22.10;81.10
41557;DHT22;27720;51.992;5.890;2023-09-08T03:08:38;22.10;81.20
41557;DHT22;27720;51.992;5.890;2023-09-08T03:11:04;22.00;81.20
41557;DHT22;27720;51.992;5.890;2023-09-08T03:13:34;22.00;81.30
41557;DHT22;27720;51.992;5.890;2023-09-08T03:16:10;22.00;81.30
41557;DHT22;27720;51.992;5.890;2023-09-08T03:18:37;22.00;81.30
41557;DHT22;27720;51.992;5.890;2023-09-08T03:21:06;22.00;81.50
41557;DHT22;27720;51.992;5.890;2023-09-08T03:23:44;21.90;81.50
41557;DHT22;27720;51.992;5.890;2023-09-08T03:26:10;21.90;81.50
41557;DHT22;27720;51.992;5.890;2023-09-08T03:28:36;21.90;81.80
41557;DHT22;27720;51.992;5.890;2023-09-08T03:31:03;21.90;81.80
41557;DHT22;27720;51.992;5.890;2023-09-08T03:33:31;21.80;81.90
41557;DHT22;27720;51.992;5.890;2023-09-08T03:35:58;21.80;81.90
41557;DHT22;27720;51.992;5.890;2023-09-08T03:38:24;21.80;82.00
41557;DHT22;27720;51.992;5.890;2023-09-08T03:40:50;21.80;82.10
41557;DHT22;27720;51.992;5.890;2023-09-08T03:43:16;21.80;82.20
41557;DHT22;27720;51.992;5.890;2023-09-08T03:45:41;21.80;82.20
41557;DHT22;27720;51.992;5.890;2023-09-08T03:48:07;21.70;82.30
41557;DHT22;27720;51.992;5.890;2023-09-08T03:50:34;21.70;82.30
41557;DHT22;27720;51.992;5.890;2023-09-08T03:52:59;21.70;82.40
41557;DHT22;27720;51.992;5.890;2023-09-08T03:55:26;21.70;82.50
41557;DHT22;27720;51.992;5.890;2023-09-08T03:57:52;21.70;82.50
41557;DHT22;27720;51.992;5.890;2023-09-08T04:00:17;21.70;82.50
41557;DHT22;27720;51.992;5.890;2023-09-08T04:02:48;21.60;82.60
41557;DHT22;27720;51.992;5.890;2023-09-08T04:05:15;21.60;82.60
41557;DHT22;27720;51.992;5.890;2023-09-08T04:07:41;21.60;82.60
41557;DHT22;27720;51.992;5.890;2023-09-08T04:10:07;21.70;82.60
41557;DHT22;27720;51.992;5.890;2023-09-08T04:12:33;21.60;82.50
41557;DHT22;27720;51.992;5.890;2023-09-08T04:14:59;21.60;82.50
41557;DHT22;27720;51.992;5.890;2023-09-08T04:17:25;21.60;82.60
41557;DHT22;27720;51.992;5.890;2023-09-08T04:19:50;21.60;82.60
41557;DHT22;27720;51.992;5.890;2023-09-08T04:22:16;21.60;82.70
41557;DHT22;27720;51.992;5.890;2023-09-08T04:24:42;21.60;82.70
41557;DHT22;27720;51.992;5.890;2023-09-08T04:27:07;21.60;82.70
41557;DHT22;27720;51.992;5.890;2023-09-08T04:29:35;21.50;82.70
41557;DHT22;27720;51.992;5.890;2023-09-08T04:32:00;21.50;82.70
41557;DHT22;27720;51.992;5.890;2023-09-08T04:34:26;21.50;82.70
41557;DHT22;27720;51.992;5.890;2023-09-08T04:36:52;21.50;82.80
41557;DHT22;27720;51.992;5.890;2023-09-08T04:39:17;21.50;82.80
41557;DHT22;27720;51.992;5.890;2023-09-08T04:41:43;21.50;82.80
41557;DHT22;27720;51.992;5.890;2023-09-08T04:44:09;21.50;82.90
41557;DHT22;27720;51.992;5.890;2023-09-08T04:46:35;21.50;82.90
41557;DHT22;27720;51.992;5.890;2023-09-08T04:49:02;21.50;83.00
41557;DHT22;27720;51.992;5.890;2023-09-08T04:51:28;21.40;83.00
41557;DHT22;27720;51.992;5.890;2023-09-08T04:54:03;21.40;83.00
41557;DHT22;27720;51.992;5.890;2023-09-08T05:00:19;21.40;82.90
41557;DHT22;27720;51.992;5.890;2023-09-08T05:02:45;21.30;83.30
41557;DHT22;27720;51.992;5.890;2023-09-08T05:05:11;21.40;83.30
41557;DHT22;27720;51.992;5.890;2023-09-08T05:07:37;21.40;83.20
41557;DHT22;27720;51.992;5.890;2023-09-08T05:10:04;21.30;83.20
41557;DHT22;27720;51.992;5.890;2023-09-08T05:12:34;21.30;83.30
41557;DHT22;27720;51.992;5.890;2023-09-08T05:15:00;21.30;83.30
41557;DHT22;27720;51.992;5.890;2023-09-08T05:17:33;21.30;83.30
41557;DHT22;27720;51.992;5.890;2023-09-08T05:20:00;21.30;83.50
41557;DHT22;27720;51.992;5.890;2023-09-08T05:22:26;21.30;83.50
41557;DHT22;27720;51.992;5.890;2023-09-08T05:24:54;21.30;83.40
41557;DHT22;27720;51.992;5.890;2023-09-08T05:27:19;21.30;83.50
41557;DHT22;27720;51.992;5.890;2023-09-08T05:29:45;21.30;83.50
41557;DHT22;27720;51.992;5.890;2023-09-08T05:32:11;21.30;83.60
41557;DHT22;27720;51.992;5.890;2023-09-08T05:34:38;21.30;83.60
41557;DHT22;27720;51.992;5.890;2023-09-08T05:37:04;21.30;83.60
41557;DHT22;27720;51.992;5.890;2023-09-08T05:39:30;21.30;83.70
41557;DHT22;27720;51.992;5.890;2023-09-08T05:41:58;21.30;83.70
41557;DHT22;27720;51.992;5.890;2023-09-08T05:44:23;21.30;83.70
41557;DHT22;27720;51.992;5.890;2023-09-08T05:46:51;21.30;83.70
41557;DHT22;27720;51.992;5.890;2023-09-08T05:49:17;21.30;83.70
41557;DHT22;27720;51.992;5.890;2023-09-08T05:51:44;21.30;83.70
41557;DHT22;27720;51.992;5.890;2023-09-08T05:54:10;21.30;83.70
41557;DHT22;27720;51.992;5.890;2023-09-08T05:56:37;21.30;83.80
41557;DHT22;27720;51.992;5.890;2023-09-08T05:59:03;21.30;83.80
41557;DHT22;27720;51.992;5.890;2023-09-08T06:01:33;21.30;83.80
41557;DHT22;27720;51.992;5.890;2023-09-08T06:04:00;21.30;83.80
41557;DHT22;27720;51.992;5.890;2023-09-08T06:06:28;21.30;83.80
41557;DHT22;27720;51.992;5.890;2023-09-08T06:08:55;21.30;83.90
41557;DHT22;27720;51.992;5.890;2023-09-08T06:11:21;21.40;84.00
41557;DHT22;27720;51.992;5.890;2023-09-08T06:13:47;21.40;83.90
41557;DHT22;27720;51.992;5.890;2023-09-08T06:16:12;21.40;84.00
41557;DHT22;27720;51.992;5.890;2023-09-08T06:18:38;21.50;83.90
41557;DHT22;27720;51.992;5.890;2023-09-08T06:21:10;21.50;84.00
41557;DHT22;27720;51.992;5.890;2023-09-08T06:23:36;21.50;84.00
41557;DHT22;27720;51.992;5.890;2023-09-08T06:26:02;21.50;84.00
41557;DHT22;27720;51.992;5.890;2023-09-08T06:28:31;21.60;84.00
41557;DHT22;27720;51.992;5.890;2023-09-08T06:30:57;21.60;84.70
41557;DHT22;27720;51.992;5.890;2023-09-08T06:33:23;21.60;84.00
41557;DHT22;27720;51.992;5.890;2023-09-08T06:35:49;21.60;84.00
41557;DHT22;27720;51.992;5.890;2023-09-08T06:38:15;21.70;83.90
41557;DHT22;27720;51.992;5.890;2023-09-08T06:40:41;21.70;83.90
41557;DHT22;27720;51.992;5.890;2023-09-08T06:43:06;21.80;84.00
41557;DHT22;27720;51.992;5.890;2023-09-08T09:24:57;26.60;78.60
41557;DHT22;27720;51.992;5.890;2023-09-08T09:27:22;26.90;79.40
41557;DHT22;27720;51.992;5.890;2023-09-08T09:29:50;27.30;79.20
41557;DHT22;27720;51.992;5.890;2023-09-08T09:32:17;27.80;78.10
41557;DHT22;27720;51.992;5.890;2023-09-08T09:34:52;28.20;77.30
41557;DHT22;27720;51.992;5.890;2023-09-08T09:37:23;28.60;76.70
41557;DHT22;27720;51.992;5.890;2023-09-08T09:39:53;29.00;76.20
41557;DHT22;27720;51.992;5.890;2023-09-08T09:42:20;29.30;74.90
41557;DHT22;27720;51.992;5.890;2023-09-08T09:44:52;29.60;72.60
41557;DHT22;27720;51.992;5.890;2023-09-08T09:47:22;29.60;72.20
41557;DHT22;27720;51.992;5.890;2023-09-08T09:49:48;29.80;72.00
41557;DHT22;27720;51.992;5.890;2023-09-08T09:52:23;30.00;71.80
41557;DHT22;27720;51.992;5.890;2023-09-08T09:54:49;30.00;71.50
41557;DHT22;27720;51.992;5.890;2023-09-08T09:57:20;30.10;70.40
41557;DHT22;27720;51.992;5.890;2023-09-08T09:59:45;30.00;70.80
41557;DHT22;27720;51.992;5.890;2023-09-08T10:02:17;30.10;70.50
41557;DHT22;27720;51.992;5.890;2023-09-08T10:04:47;30.20;70.00
41557;DHT22;27720;51.992;5.890;2023-09-08T10:07:14;30.40;70.10
41557;DHT22;27720;51.992;5.890;2023-09-08T10:09:40;30.60;69.80
41557;DHT22;27720;51.992;5.890;2023-09-08T10:12:08;30.70;69.40
41557;DHT22;27720;51.992;5.890;2023-09-08T10:14:40;30.80;69.30
41557;DHT22;27720;51.992;5.890;2023-09-08T10:17:10;31.00;69.10
41557;DHT22;27720;51.992;5.890;2023-09-08T10:19:37;31.20;68.60
41557;DHT22;27720;51.992;5.890;2023-09-08T10:22:11;31.30;68.30
41557;DHT22;27720;51.992;5.890;2023-09-08T10:24:38;31.30;67.90
41557;DHT22;27720;51.992;5.890;2023-09-08T10:27:09;31.40;67.70
41557;DHT22;27720;51.992;5.890;2023-09-08T10:29:35;31.60;67.10
41557;DHT22;27720;51.992;5.890;2023-09-08T10:32:02;31.70;66.80
41557;DHT22;27720;51.992;5.890;2023-09-08T10:34:28;31.80;66.40
41557;DHT22;27720;51.992;5.890;2023-09-08T10:36:55;31.90;66.20
41557;DHT22;27720;51.992;5.890;2023-09-08T10:39:31;32.00;66.00
41557;DHT22;27720;51.992;5.890;2023-09-08T10:47:25;32.30;64.60
41557;DHT22;27720;51.992;5.890;2023-09-08T10:49:52;32.30;64.80
41557;DHT22;27720;51.992;5.890;2023-09-08T10:52:23;32.60;64.80
41557;DHT22;27720;51.992;5.890;2023-09-08T10:54:53;32.70;64.00
41557;DHT22;27720;51.992;5.890;2023-09-08T10:57:24;32.70;63.90
41557;DHT22;27720;51.992;5.890;2023-09-08T11:00:02;32.60;63.60
41557;DHT22;27720;51.992;5.890;2023-09-08T11:02:42;32.70;63.30
41557;DHT22;27720;51.992;5.890;2023-09-08T11:05:14;32.80;63.60
41557;DHT22;27720;51.992;5.890;2023-09-08T11:07:48;33.00;63.70
41557;DHT22;27720;51.992;5.890;2023-09-08T11:10:19;33.10;62.90
41557;DHT22;27720;51.992;5.890;2023-09-08T11:12:45;33.20;62.90
41557;DHT22;27720;51.992;5.890;2023-09-08T11:15:10;33.40;62.70
41557;DHT22;27720;51.992;5.890;2023-09-08T11:17:39;33.40;61.90
41557;DHT22;27720;51.992;5.890;2023-09-08T11:20:07;33.60;61.80
41557;DHT22;27720;51.992;5.890;2023-09-08T11:22:34;33.70;61.20
41557;DHT22;27720;51.992;5.890;2023-09-08T11:25:01;33.80;61.50
41557;DHT22;27720;51.992;5.890;2023-09-08T11:27:30;34.00;61.50
41557;DHT22;27720;51.992;5.890;2023-09-08T11:29:57;34.30;61.30
41557;DHT22;27720;51.992;5.890;2023-09-08T11:32:32;34.40;60.30
41557;DHT22;27720;51.992;5.890;2023-09-08T11:35:09;34.40;59.90
41557;DHT22;27720;51.992;5.890;2023-09-08T11:37:38;34.60;59.80
41557;DHT22;27720;51.992;5.890;2023-09-08T11:40:06;34.70;59.70
41557;DHT22;27720;51.992;5.890;2023-09-08T11:42:35;34.90;59.50
41557;DHT22;27720;51.992;5.890;2023-09-08T11:45:01;35.10;59.20
41557;DHT22;27720;51.992;5.890;2023-09-08T11:47:29;35.20;58.30
41557;DHT22;27720;51.992;5.890;2023-09-08T11:49:56;35.00;58.60
41557;DHT22;27720;51.992;5.890;2023-09-08T11:52:23;35.10;58.70
41557;DHT22;27720;51.992;5.890;2023-09-08T11:54:51;35.20;59.00
41557;DHT22;27720;51.992;5.890;2023-09-08T11:57:17;35.40;58.80
41557;DHT22;27720;51.992;5.890;2023-09-08T11:59:43;35.50;58.50
41557;DHT22;27720;51.992;5.890;2023-09-08T12:02:12;35.40;57.20
41557;DHT22;27720;51.992;5.890;2023-09-08T12:04:37;35.20;57.70
41557;DHT22;27720;51.992;5.890;2023-09-08T12:07:04;35.20;57.80
41557;DHT22;27720;51.992;5.890;2023-09-08T12:09:30;35.30;57.60
41557;DHT22;27720;51.992;5.890;2023-09-08T12:11:57;35.30;58.10
41557;DHT22;27720;51.992;5.890;2023-09-08T12:14:25;35.40;57.50
41557;DHT22;27720;51.992;5.890;2023-09-08T12:17:05;35.50;57.70
41557;DHT22;27720;51.992;5.890;2023-09-08T12:19:32;35.80;57.20
41557;DHT22;27720;51.992;5.890;2023-09-08T12:22:03;35.90;56.70
41557;DHT22;27720;51.992;5.890;2023-09-08T12:27:22;36.20;56.90
41557;DHT22;27720;51.992;5.890;2023-09-08T12:30:18;36.20;56.50
41557;DHT22;27720;51.992;5.890;2023-09-08T12:32:46;36.20;56.40
41557;DHT22;27720;51.992;5.890;2023-09-08T12:35:18;36.30;56.50
41557;DHT22;27720;51.992;5.890;2023-09-08T12:37:44;36.30;56.70
41557;DHT22;27720;51.992;5.890;2023-09-08T12:40:10;36.30;56.60
41557;DHT22;27720;51.992;5.890;2023-09-08T12:42:36;36.40;56.40
41557;DHT22;27720;51.992;5.890;2023-09-08T12:45:02;36.40;56.10
41557;DHT22;27720;51.992;5.890;2023-09-08T12:47:28;36.40;55.90
41557;DHT22;27720;51.992;5.890;2023-09-08T12:49:53;36.50;56.10
41557;DHT22;27720;51.992;5.890;2023-09-08T12:52:21;36.50;55.90
41557;DHT22;27720;51.992;5.890;2023-09-08T12:54:46;36.50;55.80
41557;DHT22;27720;51.992;5.890;2023-09-08T12:57:12;36.40;55.40
41557;DHT22;27720;51.992;5.890;2023-09-08T12:59:38;36.40;55.80
41557;DHT22;27720;51.992;5.890;2023-09-08T13:02:04;36.40;55.80
41557;DHT22;27720;51.992;5.890;2023-09-08T13:04:30;36.60;55.70
41557;DHT22;27720;51.992;5.890;2023-09-08T13:06:56;36.60;55.50
41557;DHT22;27720;51.992;5.890;2023-09-08T13:09:24;36.70;55.40
41557;DHT22;27720;51.992;5.890;2023-09-08T13:11:49;36.80;56.10
41557;DHT22;27720;51.992;5.890;2023-09-08T13:14:17;36.90;55.70
41557;DHT22;27720;51.992;5.890;2023-09-08T13:16:42;36.80;55.00
41557;DHT22;27720;51.992;5.890;2023-09-08T13:19:08;36.80;55.40
41557;DHT22;27720;51.992;5.890;2023-09-08T13:21:34;36.90;55.30
41557;DHT22;27720;51.992;5.890;2023-09-08T13:23:59;36.90;55.30
41557;DHT22;27720;51.992;5.890;2023-09-08T13:26:25;37.10;55.00
41557;DHT22;27720;51.992;5.890;2023-09-08T13:28:51;37.10;54.20
41557;DHT22;27720;51.992;5.890;2023-09-08T13:31:18;37.10;54.00
41557;DHT22;27720;51.992;5.890;2023-09-08T13:33:43;37.10;53.80
41557;DHT22;27720;51.992;5.890;2023-09-08T13:36:09;37.10;53.60
41557;DHT22;27720;51.992;5.890;2023-09-08T13:38:34;37.00;53.70
41557;DHT22;27720;51.992;5.890;2023-09-08T13:41:01;37.10;53.80
41557;DHT22;27720;51.992;5.890;2023-09-08T13:43:27;37.20;54.00
41557;DHT22;27720;51.992;5.890;2023-09-08T13:45:53;37.30;53.80
41557;DHT22;27720;51.992;5.890;2023-09-08T13:48:18;37.30;53.90
41557;DHT22;27720;51.992;5.890;2023-09-08T13:50:44;37.30;53.90
41557;DHT22;27720;51.992;5.890;2023-09-08T13:53:10;37.40;54.40
41557;DHT22;27720;51.992;5.890;2023-09-08T13:55:35;37.40;54.80
41557;DHT22;27720;51.992;5.890;2023-09-08T13:58:01;37.30;55.50
41557;DHT22;27720;51.992;5.890;2023-09-08T14:00:27;37.30;54.60
41557;DHT22;27720;51.992;5.890;2023-09-08T14:02:52;37.30;54.30
41557;DHT22;27720;51.992;5.890;2023-09-08T14:05:18;37.20;54.10
41557;DHT22;27720;51.992;5.890;2023-09-08T14:07:44;37.20;54.50
41557;DHT22;27720;51.992;5.890;2023-09-08T14:10:10;37.20;54.30
41557;DHT22;27720;51.992;5.890;2023-09-08T14:12:36;37.10;54.60
41557;DHT22;27720;51.992;5.890;2023-09-08T14:15:02;37.00;54.30
41557;DHT22;27720;51.992;5.890;2023-09-08T14:17:28;36.80;53.80
41557;DHT22;27720;51.992;5.890;2023-09-08T14:19:54;36.70;54.50
41557;DHT22;27720;51.992;5.890;2023-09-08T14:22:22;36.70;54.60
41557;DHT22;27720;51.992;5.890;2023-09-08T14:24:48;36.70;54.70
41557;DHT22;27720;51.992;5.890;2023-09-08T14:27:14;36.70;54.60
41557;DHT22;27720;51.992;5.890;2023-09-08T14:29:40;36.60;54.60
41557;DHT22;27720;51.992;5.890;2023-09-08T14:32:05;36.60;54.80
41557;DHT22;27720;51.992;5.890;2023-09-08T14:34:31;36.60;54.80
41557;DHT22;27720;51.992;5.890;2023-09-08T14:36:57;36.60;54.50
41557;DHT22;27720;51.992;5.890;2023-09-08T14:39:22;36.60;54.70
41557;DHT22;27720;51.992;5.890;2023-09-08T14:41:48;36.60;54.80
41557;DHT22;27720;51.992;5.890;2023-09-08T14:44:19;36.50;54.60
41557;DHT22;27720;51.992;5.890;2023-09-08T14:46:46;36.50;54.70
41557;DHT22;27720;51.992;5.890;2023-09-08T14:49:12;36.40;55.00
41557;DHT22;27720;51.992;5.890;2023-09-08T14:51:40;36.30;54.70
41557;DHT22;27720;51.992;5.890;2023-09-08T14:54:06;36.20;54.50
41557;DHT22;27720;51.992;5.890;2023-09-08T14:56:31;36.20;54.50
41557;DHT22;27720;51.992;5.890;2023-09-08T14:58:57;36.30;54.40
41557;DHT22;27720;51.992;5.890;2023-09-08T15:01:23;36.30;54.50
41557;DHT22;27720;51.992;5.890;2023-09-08T15:03:48;36.20;54.60
41557;DHT22;27720;51.992;5.890;2023-09-08T15:06:14;36.10;55.10
41557;DHT22;27720;51.992;5.890;2023-09-08T15:08:40;36.00;54.70
41557;DHT22;27720;51.992;5.890;2023-09-08T15:11:08;35.80;54.50
41557;DHT22;27720;51.992;5.890;2023-09-08T15:13:34;35.70;54.70
41557;DHT22;27720;51.992;5.890;2023-09-08T15:16:00;35.60;54.80
41557;DHT22;27720;51.992;5.890;2023-09-08T15:18:25;35.60;54.90
41557;DHT22;27720;51.992;5.890;2023-09-08T15:20:53;35.60;55.20
41557;DHT22;27720;51.992;5.890;2023-09-08T15:23:19;35.50;55.90
41557;DHT22;27720;51.992;5.890;2023-09-08T15:25:56;35.30;56.20
41557;DHT22;27720;51.992;5.890;2023-09-08T15:28:22;35.20;56.30
41557;DHT22;27720;51.992;5.890;2023-09-08T15:30:50;35.20;56.70
41557;DHT22;27720;51.992;5.890;2023-09-08T15:33:16;35.00;57.00
41557;DHT22;27720;51.992;5.890;2023-09-08T15:35:42;34.80;57.10
41557;DHT22;27720;51.992;5.890;2023-09-08T15:38:08;34.60;57.00
41557;DHT22;27720;51.992;5.890;2023-09-08T15:40:36;34.50;56.80
41557;DHT22;27720;51.992;5.890;2023-09-08T15:43:02;34.40;57.00
41557;DHT22;27720;51.992;5.890;2023-09-08T15:45:28;34.30;57.50
41557;DHT22;27720;51.992;5.890;2023-09-08T15:47:53;34.20;58.20
41557;DHT22;27720;51.992;5.890;2023-09-08T15:50:19;34.10;58.90
41557;DHT22;27720;51.992;5.890;2023-09-08T15:52:45;33.90;59.40
41557;DHT22;27720;51.992;5.890;2023-09-08T15:55:10;33.70;59.90
41557;DHT22;27720;51.992;5.890;2023-09-08T15:57:37;33.60;60.30
41557;DHT22;27720;51.992;5.890;2023-09-08T16:00:03;33.50;59.90
41557;DHT22;27720;51.992;5.890;2023-09-08T16:02:34;33.40;59.90
41557;DHT22;27720;51.992;5.890;2023-09-08T16:05:00;33.40;60.20
41557;DHT22;27720;51.992;5.890;2023-09-08T16:07:25;33.30;60.50
41557;DHT22;27720;51.992;5.890;2023-09-08T16:09:51;33.20;61.30
41557;DHT22;27720;51.992;5.890;2023-09-08T16:12:17;33.10;60.80
41557;DHT22;27720;51.992;5.890;2023-09-08T16:14:42;33.00;61.10
41557;DHT22;27720;51.992;5.890;2023-09-08T16:17:08;33.00;61.30
41557;DHT22;27720;51.992;5.890;2023-09-08T16:19:34;32.90;61.50
41557;DHT22;27720;51.992;5.890;2023-09-08T16:22:00;32.90;62.10
41557;DHT22;27720;51.992;5.890;2023-09-08T16:24:26;32.80;62.50
41557;DHT22;27720;51.992;5.890;2023-09-08T16:26:51;32.70;62.70
41557;DHT22;27720;51.992;5.890;2023-09-08T16:29:17;32.70;62.40
41557;DHT22;27720;51.992;5.890;2023-09-08T16:31:43;32.70;62.20
41557;DHT22;27720;51.992;5.890;2023-09-08T16:34:08;32.60;61.80
41557;DHT22;27720;51.992;5.890;2023-09-08T16:36:34;32.60;62.30
41557;DHT22;27720;51.992;5.890;2023-09-08T16:39:00;32.60;62.30
41557;DHT22;27720;51.992;5.890;2023-09-08T16:41:25;32.50;62.70
41557;DHT22;27720;51.992;5.890;2023-09-08T16:43:51;32.50;63.20
41557;DHT22;27720;51.992;5.890;2023-09-08T16:46:17;32.40;63.50
41557;DHT22;27720;51.992;5.890;2023-09-08T16:48:42;32.30;63.40
41557;DHT22;27720;51.992;5.890;2023-09-08T16:51:08;32.30;63.60
41557;DHT22;27720;51.992;5.890;2023-09-08T16:53:34;32.30;64.00
41557;DHT22;27720;51.992;5.890;2023-09-08T16:55:59;32.30;64.40
41557;DHT22;27720;51.992;5.890;2023-09-08T16:58:25;32.20;64.70
41557;DHT22;27720;51.992;5.890;2023-09-08T17:00:51;32.10;64.70
41557;DHT22;27720;51.992;5.890;2023-09-08T17:03:16;32.10;65.00
41557;DHT22;27720;51.992;5.890;2023-09-08T17:05:42;32.00;65.30
41557;DHT22;27720;51.992;5.890;2023-09-08T17:08:08;32.00;65.60
41557;DHT22;27720;51.992;5.890;2023-09-08T17:10:34;31.90;65.60
41557;DHT22;27720;51.992;5.890;2023-09-08T17:13:00;31.90;65.70
41557;DHT22;27720;51.992;5.890;2023-09-08T17:15:26;31.80;65.70
41557;DHT22;27720;51.992;5.890;2023-09-08T17:17:51;31.80;65.90
41557;DHT22;27720;51.992;5.890;2023-09-08T17:20:17;31.80;66.30
41557;DHT22;27720;51.992;5.890;2023-09-08T17:22:43;31.70;66.50
41557;DHT22;27720;51.992;5.890;2023-09-08T17:25:09;31.60;66.90
41557;DHT22;27720;51.992;5.890;2023-09-08T17:27:36;31.50;67.20
41557;DHT22;27720;51.992;5.890;2023-09-08T17:30:02;31.50;67.50
41557;DHT22;27720;51.992;5.890;2023-09-08T17:32:27;31.40;67.70
41557;DHT22;27720;51.992;5.890;2023-09-08T17:34:53;31.40;68.10
41557;DHT22;27720;51.992;5.890;2023-09-08T17:37:19;31.30;68.40
41557;DHT22;27720;51.992;5.890;2023-09-08T17:39:45;31.20;68.80
41557;DHT22;27720;51.992;5.890;2023-09-08T17:42:10;31.20;69.20
41557;DHT22;27720;51.992;5.890;2023-09-08T17:44:36;31.10;69.50
41557;DHT22;27720;51.992;5.890;2023-09-08T17:47:02;31.10;69.90
41557;DHT22;27720;51.992;5.890;2023-09-08T17:49:31;31.00;70.20
41557;DHT22;27720;51.992;5.890;2023-09-08T17:51:58;30.80;70.40
41557;DHT22;27720;51.992;5.890;2023-09-08T17:54:24;30.80;70.70
41557;DHT22;27720;51.992;5.890;2023-09-08T17:56:50;30.70;70.90
41557;DHT22;27720;51.992;5.890;2023-09-08T17:59:15;30.70;71.20
41557;DHT22;27720;51.992;5.890;2023-09-08T18:01:41;30.60;71.40
41557;DHT22;27720;51.992;5.890;2023-09-08T18:04:07;30.50;71.70
41557;DHT22;27720;51.992;5.890;2023-09-08T18:06:32;30.50;71.90
41557;DHT22;27720;51.992;5.890;2023-09-08T18:08:58;30.40;72.10
41557;DHT22;27720;51.992;5.890;2023-09-08T18:11:24;30.30;72.30
41557;DHT22;27720;51.992;5.890;2023-09-08T18:13:50;30.30;72.60
41557;DHT22;27720;51.992;5.890;2023-09-08T18:16:16;30.20;72.70
41557;DHT22;27720;51.992;5.890;2023-09-08T18:18:43;30.20;73.00
41557;DHT22;27720;51.992;5.890;2023-09-08T18:21:08;30.10;73.20
41557;DHT22;27720;51.992;5.890;2023-09-08T18:23:34;30.00;73.30